Aviation Digital Data Service (ADDS)

Output produced by METARs form (1659 UTC 30 January 2015)
found at http://aviationweather.gov/adds/metars/
 
KGSP 301126Z 3012/3112 34010G21KT P6SM SKC 
     FM310000 34004KT P6SM SKC